Time;durP1;ratioP1;P1;durP2;ratioP2;P2;SDS_P1;SDS_P2;PMS_P1;PMS_P2;Temp;Humidity;BMP_temperature;BMP_pressure;BME280_temperature;BME280_humidity;BME280_pressure;Samples;Min_cycle;Max_cycle;Signal;HPM_P1;HPM_P2
2023/07/09 00:01:26;;;;;;;6.15;4.53;;;29.20;52.20;;;;;;4956380;29;20583;-77
2023/07/09 00:03:53;;;;;;;5.70;4.55;;;29.20;52.20;;;;;;4956232;29;20085;-78
2023/07/09 00:06:19;;;;;;;6.50;4.68;;;29.10;52.20;;;;;;4957214;28;20098;-78
2023/07/09 00:08:47;;;;;;;6.35;4.47;;;29.10;52.30;;;;;;4940367;29;20058;-78
2023/07/09 00:11:14;;;;;;;6.68;4.72;;;29.10;52.30;;;;;;4956144;29;20046;-79
2023/07/09 00:13:40;;;;;;;5.85;4.40;;;29.00;52.30;;;;;;4940269;29;20179;-79
2023/07/09 00:16:36;;;;;;;5.90;4.15;;;29.00;52.40;;;;;;4955795;29;20468;-79
2023/07/09 00:19:04;;;;;;;5.70;4.10;;;29.00;52.50;;;;;;4932559;29;20042;-77
2023/07/09 00:21:34;;;;;;;7.22;4.60;;;28.90;52.40;;;;;;4956974;28;20027;-77
2023/07/09 00:24:04;;;;;;;6.13;4.55;;;28.90;52.40;;;;;;4940745;29;20039;-77
2023/07/09 00:26:33;;;;;;;6.85;4.88;;;28.90;52.50;;;;;;4955747;29;20038;-80
2023/07/09 00:28:59;;;;;;;6.35;4.78;;;28.90;52.60;;;;;;4939971;29;20035;-77
2023/07/09 00:31:26;;;;;;;5.75;4.50;;;28.80;52.60;;;;;;4923967;29;20492;-78
2023/07/09 00:33:55;;;;;;;6.05;4.45;;;28.80;52.60;;;;;;4939912;28;20126;-78
2023/07/09 00:36:31;;;;;;;5.68;4.00;;;28.80;52.70;;;;;;4955666;29;20027;-78
2023/07/09 00:38:59;;;;;;;5.53;3.97;;;28.80;52.70;;;;;;4956646;28;20476;-78
2023/07/09 00:41:25;;;;;;;5.68;4.50;;;28.70;52.70;;;;;;4955861;28;20101;-78
2023/07/09 00:43:52;;;;;;;6.10;4.63;;;28.70;52.80;;;;;;4939213;29;20035;-77
2023/07/09 00:46:24;;;;;;;5.90;4.70;;;28.70;52.80;;;;;;4955485;28;20035;-77
2023/07/09 00:48:57;;;;;;;6.05;4.25;;;28.70;52.80;;;;;;4956433;28;20051;-78
2023/07/09 00:51:25;;;;;;;5.63;4.00;;;28.70;52.90;;;;;;4955451;29;20082;-77
2023/07/09 00:54:00;;;;;;;6.40;4.70;;;28.60;52.90;;;;;;4939032;29;20058;-78
2023/07/09 00:56:41;;;;;;;6.05;4.50;;;28.60;52.90;;;;;;4939113;29;20035;-77
2023/07/09 00:59:11;;;;;;;5.60;4.28;;;28.60;53.20;;;;;;4955872;29;20054;-78
2023/07/09 01:01:40;;;;;;;5.60;4.20;;;28.50;52.90;;;;;;4955218;29;20063;-78
2023/07/09 01:04:10;;;;;;;6.07;4.35;;;28.40;52.90;;;;;;4955001;29;20511;-78
2023/07/09 01:06:47;;;;;;;6.30;4.40;;;28.40;53.00;;;;;;4954955;29;20049;-78
2023/07/09 01:09:13;;;;;;;5.57;4.47;;;28.40;53.00;;;;;;4955454;29;20117;-78
2023/07/09 01:11:39;;;;;;;6.57;4.55;;;28.30;52.90;;;;;;4955756;28;20626;-78
2023/07/09 01:14:08;;;;;;;6.10;4.72;;;28.30;53.00;;;;;;4939103;29;20058;-79
2023/07/09 01:16:38;;;;;;;6.85;4.72;;;28.30;53.00;;;;;;4954919;29;20416;-74
2023/07/09 01:19:08;;;;;;;5.40;4.40;;;28.30;53.10;;;;;;4955681;29;20050;-76
2023/07/09 01:21:34;;;;;;;5.95;4.50;;;28.20;53.10;;;;;;4954627;29;20440;-75
2023/07/09 01:24:26;;;;;;;5.60;4.20;;;28.20;53.10;;;;;;4938955;28;20031;-76
2023/07/09 01:26:52;;;;;;;5.75;4.60;;;28.20;53.20;;;;;;4938763;29;20037;-75
2023/07/09 01:29:18;;;;;;;5.13;4.07;;;28.20;53.20;;;;;;4938488;29;20035;-75
2023/07/09 01:31:43;;;;;;;6.05;4.72;;;28.10;53.10;;;;;;4954650;29;20035;-75
2023/07/09 01:34:09;;;;;;;5.10;4.00;;;28.10;53.20;;;;;;4954674;29;20034;-76
2023/07/09 01:36:35;;;;;;;5.32;3.95;;;28.10;53.20;;;;;;4938738;28;20039;-75
2023/07/09 01:39:02;;;;;;;4.97;4.07;;;28.10;53.20;;;;;;4954719;29;20042;-75
2023/07/09 01:41:28;;;;;;;6.45;4.47;;;28.00;53.20;;;;;;4954676;29;20040;-75
2023/07/09 01:43:54;;;;;;;5.63;4.25;;;28.00;53.30;;;;;;4938599;29;20038;-76
2023/07/09 01:46:21;;;;;;;6.28;4.70;;;28.00;53.30;;;;;;4954774;29;20162;-76
2023/07/09 01:48:49;;;;;;;6.28;4.82;;;27.90;53.30;;;;;;4955721;28;20486;-75
2023/07/09 01:51:16;;;;;;;5.95;4.45;;;27.90;53.40;;;;;;4938810;29;20043;-75
2023/07/09 01:53:44;;;;;;;5.93;4.20;;;27.90;53.40;;;;;;4954777;28;20031;-75
2023/07/09 01:56:10;;;;;;;6.88;4.45;;;27.90;53.40;;;;;;4955091;29;20139;-75
2023/07/09 01:58:41;;;;;;;5.93;4.55;;;27.80;53.40;;;;;;4938354;28;20134;-75
2023/07/09 02:01:09;;;;;;;5.50;4.30;;;27.80;53.40;;;;;;4954520;28;20039;-76
2023/07/09 02:03:35;;;;;;;5.80;4.57;;;27.80;53.50;;;;;;4954255;28;20058;-75
2023/07/09 02:06:08;;;;;;;6.47;5.10;;;27.80;53.50;;;;;;4922655;29;20035;-75
2023/07/09 02:08:35;;;;;;;5.65;4.57;;;27.80;53.60;;;;;;4954520;28;20051;-76
2023/07/09 02:11:01;;;;;;;6.78;4.63;;;27.70;53.50;;;;;;4954255;29;20035;-76
2023/07/09 02:13:27;;;;;;;5.93;4.45;;;27.70;53.60;;;;;;4954872;28;20062;-75
2023/07/09 02:15:53;;;;;;;6.00;4.75;;;27.70;53.60;;;;;;4954044;29;20031;-76
2023/07/09 02:18:19;;;;;;;5.65;4.45;;;27.60;53.60;;;;;;4955276;29;20035;-75
2023/07/09 02:20:48;;;;;;;5.13;4.10;;;27.60;53.60;;;;;;4954738;29;20067;-76
2023/07/09 02:23:13;;;;;;;5.43;4.03;;;27.60;53.70;;;;;;4953969;29;20040;-75
2023/07/09 02:25:40;;;;;;;6.43;4.70;;;27.50;53.70;;;;;;4954360;29;20404;-75
2023/07/09 02:28:05;;;;;;;6.78;4.93;;;27.50;53.70;;;;;;4955010;28;20519;-75
2023/07/09 02:30:31;;;;;;;6.10;4.68;;;27.50;53.70;;;;;;4955415;28;20043;-75
2023/07/09 02:32:57;;;;;;;5.75;4.28;;;27.50;53.80;;;;;;4938183;29;20035;-76
2023/07/09 02:35:23;;;;;;;6.07;4.82;;;27.50;53.90;;;;;;4937942;29;20465;-75
2023/07/09 02:37:49;;;;;;;7.03;4.55;;;27.40;53.80;;;;;;4938717;29;20035;-75
2023/07/09 02:40:15;;;;;;;5.15;4.35;;;27.40;53.80;;;;;;4953919;29;20043;-75
2023/07/09 02:42:41;;;;;;;6.70;4.40;;;27.40;53.90;;;;;;4953900;29;20063;-76
2023/07/09 02:45:08;;;;;;;6.05;4.65;;;27.40;53.90;;;;;;4937907;29;20106;-75
2023/07/09 02:47:34;;;;;;;5.45;4.18;;;27.30;53.80;;;;;;4954766;28;20028;-75
2023/07/09 02:50:00;;;;;;;5.80;4.30;;;27.30;53.90;;;;;;4953086;28;20051;-74
2023/07/09 02:52:26;;;;;;;6.50;4.35;;;27.30;53.90;;;;;;4938925;29;20509;-75
2023/07/09 02:54:52;;;;;;;6.30;4.82;;;27.30;54.00;;;;;;4953809;28;20038;-77
2023/07/09 02:57:18;;;;;;;6.70;4.65;;;27.20;54.00;;;;;;4954091;29;20035;-75
2023/07/09 02:59:44;;;;;;;5.68;4.22;;;27.20;54.00;;;;;;4953643;29;20054;-75
2023/07/09 03:02:10;;;;;;;6.47;4.55;;;27.20;54.10;;;;;;4937994;29;20023;-75
2023/07/09 03:04:36;;;;;;;5.82;4.38;;;27.20;54.10;;;;;;4939263;29;20440;-76
2023/07/09 03:07:02;;;;;;;5.60;4.40;;;27.10;54.10;;;;;;4958883;28;20027;-74
2023/07/09 03:09:28;;;;;;;5.18;3.92;;;27.10;54.10;;;;;;4941428;29;20046;-77
2023/07/09 03:11:54;;;;;;;5.30;3.90;;;27.10;54.20;;;;;;4958223;28;20039;-73
2023/07/09 03:14:20;;;;;;;5.35;4.10;;;27.00;54.10;;;;;;4957157;29;20085;-76
2023/07/09 03:16:46;;;;;;;5.70;4.00;;;27.00;54.20;;;;;;4957476;29;20031;-76
2023/07/09 03:19:12;;;;;;;6.15;4.53;;;27.00;54.20;;;;;;4958450;28;20047;-75
2023/07/09 03:21:38;;;;;;;6.97;4.60;;;27.00;54.30;;;;;;4941115;29;20420;-76
2023/07/09 03:24:05;;;;;;;5.28;4.10;;;26.90;54.30;;;;;;4941192;28;20050;-76
2023/07/09 03:26:30;;;;;;;5.82;4.35;;;26.90;54.30;;;;;;4941096;29;20066;-77
2023/07/09 03:28:56;;;;;;;5.68;4.40;;;26.90;54.30;;;;;;4957609;29;20485;-76
2023/07/09 03:31:23;;;;;;;6.13;4.68;;;26.80;54.30;;;;;;4957489;29;20047;-76
2023/07/09 03:33:49;;;;;;;5.55;4.38;;;26.80;54.40;;;;;;4958126;28;20027;-76
2023/07/09 03:36:16;;;;;;;5.22;4.05;;;26.80;54.30;;;;;;4957134;28;20039;-77
2023/07/09 03:38:42;;;;;;;5.70;4.07;;;26.80;54.40;;;;;;4958283;28;20031;-76
2023/07/09 03:41:08;;;;;;;5.63;4.30;;;26.80;54.50;;;;;;4958386;28;20047;-76
2023/07/09 03:43:34;;;;;;;6.05;4.68;;;26.70;54.50;;;;;;4940938;29;20023;-76
2023/07/09 03:45:59;;;;;;;5.68;4.30;;;26.70;54.50;;;;;;4940697;29;20034;-76
2023/07/09 03:48:25;;;;;;;5.70;4.07;;;26.70;54.50;;;;;;4956531;29;20089;-77
2023/07/09 03:50:51;;;;;;;6.32;4.40;;;26.70;54.60;;;;;;4957272;29;20094;-75
2023/07/09 03:53:17;;;;;;;5.93;4.20;;;26.60;54.60;;;;;;4956865;29;20038;-75
2023/07/09 03:55:46;;;;;;;5.88;4.13;;;26.60;54.70;;;;;;4940382;29;20031;-74
2023/07/09 03:58:12;;;;;;;6.15;4.55;;;26.60;54.70;;;;;;4956734;28;20461;-75
2023/07/09 04:00:38;;;;;;;6.10;4.88;;;26.60;54.70;;;;;;4941183;29;20038;-76
2023/07/09 04:03:04;;;;;;;6.07;4.45;;;26.50;54.70;;;;;;4941147;28;20415;-75
2023/07/09 04:05:29;;;;;;;5.82;4.57;;;26.50;54.60;;;;;;4940378;29;20354;-75
2023/07/09 04:07:55;;;;;;;5.20;4.07;;;26.50;54.70;;;;;;4957759;28;20126;-76
2023/07/09 04:10:21;;;;;;;5.82;4.30;;;26.50;54.70;;;;;;4956946;29;20349;-76
2023/07/09 04:12:47;;;;;;;6.40;4.43;;;26.50;54.80;;;;;;4957193;28;20034;-76
2023/07/09 04:15:13;;;;;;;5.50;4.30;;;26.40;54.80;;;;;;4956771;28;20444;-75
2023/07/09 04:17:40;;;;;;;5.93;4.57;;;26.40;54.90;;;;;;4955335;29;20035;-76
2023/07/09 04:20:08;;;;;;;5.70;4.32;;;26.40;54.90;;;;;;4956911;28;20043;-76
2023/07/09 04:22:37;;;;;;;6.28;4.45;;;26.40;54.90;;;;;;4940023;29;20066;-77
2023/07/09 04:25:05;;;;;;;6.47;4.60;;;26.40;55.00;;;;;;4956170;29;20028;-76
2023/07/09 04:27:31;;;;;;;5.45;4.03;;;26.40;55.10;;;;;;4939945;29;20042;-76
2023/07/09 04:29:57;;;;;;;5.20;4.30;;;26.40;55.10;;;;;;4955741;29;20035;-76
2023/07/09 04:32:23;;;;;;;5.72;4.38;;;26.30;55.10;;;;;;4956608;28;20078;-76
2023/07/09 04:34:49;;;;;;;5.75;4.40;;;26.30;55.20;;;;;;4955854;29;20039;-76
2023/07/09 04:37:19;;;;;;;5.40;4.07;;;26.30;55.20;;;;;;4956669;28;20027;-77
2023/07/09 04:39:45;;;;;;;5.90;4.00;;;26.30;55.30;;;;;;4955746;29;20046;-76
2023/07/09 04:42:13;;;;;;;5.70;4.43;;;26.20;55.30;;;;;;4955674;29;20031;-77
2023/07/09 04:44:39;;;;;;;6.05;4.25;;;26.20;55.30;;;;;;4956470;28;20039;-77
2023/07/09 04:47:05;;;;;;;5.35;4.28;;;26.20;55.40;;;;;;4956464;29;20035;-76
2023/07/09 04:49:32;;;;;;;6.20;4.30;;;26.20;55.40;;;;;;4956905;28;20156;-77
2023/07/09 04:51:59;;;;;;;5.75;4.43;;;26.20;55.40;;;;;;4955811;29;20050;-76
2023/07/09 04:54:25;;;;;;;5.43;4.38;;;26.20;55.50;;;;;;4955183;29;20519;-77
2023/07/09 04:56:51;;;;;;;6.20;4.32;;;26.20;55.50;;;;;;4939091;28;20031;-76
2023/07/09 04:59:17;;;;;;;6.00;4.60;;;26.10;55.50;;;;;;4956248;28;20046;-76
2023/07/09 05:01:42;;;;;;;6.05;4.35;;;26.10;55.50;;;;;;4955015;29;20046;-77
2023/07/09 05:04:08;;;;;;;5.47;4.00;;;26.10;55.60;;;;;;4940078;28;20031;-76
2023/07/09 05:06:34;;;;;;;5.50;3.83;;;26.10;55.60;;;;;;4955020;29;20039;-77
2023/07/09 05:09:00;;;;;;;6.15;4.22;;;26.10;55.70;;;;;;4955308;29;20032;-76
2023/07/09 05:11:26;;;;;;;5.18;3.97;;;26.10;55.60;;;;;;4955203;29;20046;-76
2023/07/09 05:13:52;;;;;;;5.40;4.15;;;26.10;55.70;;;;;;4956321;28;20039;-77
2023/07/09 05:16:18;;;;;;;5.85;4.55;;;26.10;55.70;;;;;;4955349;29;20472;-77
2023/07/09 05:18:45;;;;;;;5.07;3.97;;;26.10;55.70;;;;;;4939129;29;20035;-76
2023/07/09 05:21:11;;;;;;;5.10;3.75;;;26.10;55.70;;;;;;4955099;29;20094;-77
2023/07/09 05:23:37;;;;;;;5.85;4.13;;;26.10;55.70;;;;;;4956153;28;20023;-77
2023/07/09 05:26:04;;;;;;;6.15;4.50;;;26.10;55.80;;;;;;4955808;28;20094;-77
2023/07/09 05:28:32;;;;;;;5.63;4.10;;;26.00;55.80;;;;;;4954389;28;20027;-77
2023/07/09 05:30:58;;;;;;;6.00;4.55;;;26.10;55.80;;;;;;4954378;29;20110;-77
2023/07/09 05:33:24;;;;;;;5.82;4.28;;;26.00;55.80;;;;;;4956272;28;20039;-77
2023/07/09 05:35:50;;;;;;;5.53;4.22;;;26.00;55.80;;;;;;4939367;28;20608;-76
2023/07/09 05:38:16;;;;;;;6.00;4.43;;;26.00;55.80;;;;;;4956731;28;20384;-76
2023/07/09 05:40:42;;;;;;;5.13;4.00;;;26.00;55.80;;;;;;4955410;28;20090;-76
2023/07/09 05:43:09;;;;;;;5.82;4.55;;;26.00;55.80;;;;;;4955465;29;20130;-77
2023/07/09 05:45:35;;;;;;;6.13;4.43;;;26.00;55.80;;;;;;4938550;29;20028;-77
2023/07/09 05:48:01;;;;;;;6.40;4.60;;;26.00;55.70;;;;;;4954303;29;20039;-77
2023/07/09 05:50:28;;;;;;;5.43;4.13;;;26.10;55.80;;;;;;4954440;29;20051;-77
2023/07/09 05:52:54;;;;;;;5.93;4.47;;;26.10;55.80;;;;;;4954303;29;20054;-76
2023/07/09 05:55:20;;;;;;;5.57;3.90;;;26.00;55.70;;;;;;4954271;28;20110;-77
2023/07/09 05:57:46;;;;;;;5.63;4.15;;;26.10;55.70;;;;;;4954493;29;20468;-77
2023/07/09 06:00:12;;;;;;;5.35;4.32;;;26.10;55.70;;;;;;4938442;28;20042;-77
2023/07/09 06:02:42;;;;;;;5.43;4.15;;;26.10;55.70;;;;;;4953929;29;20118;-77
2023/07/09 06:05:11;;;;;;;5.68;4.18;;;26.10;55.60;;;;;;4955779;28;20123;-76
2023/07/09 06:07:38;;;;;;;6.15;4.28;;;26.10;55.70;;;;;;4938607;29;20035;-77
2023/07/09 06:10:09;;;;;;;5.85;4.10;;;26.10;55.60;;;;;;4953899;29;20041;-77
2023/07/09 06:12:35;;;;;;;5.78;3.95;;;26.10;55.60;;;;;;4938471;29;20031;-77
2023/07/09 06:15:02;;;;;;;5.50;4.07;;;26.10;55.70;;;;;;4955451;28;20059;-76
2023/07/09 06:17:28;;;;;;;5.70;4.30;;;26.10;55.70;;;;;;4954778;29;20039;-77
2023/07/09 06:19:53;;;;;;;5.13;3.78;;;26.10;55.80;;;;;;4954880;29;20512;-76
2023/07/09 06:22:19;;;;;;;5.25;3.90;;;26.10;55.70;;;;;;4954257;29;20036;-77
2023/07/09 06:24:45;;;;;;;5.25;4.15;;;26.10;55.70;;;;;;4953809;29;20036;-76
2023/07/09 06:27:11;;;;;;;5.72;4.28;;;26.10;55.70;;;;;;4953823;29;20035;-78
2023/07/09 06:29:37;;;;;;;5.25;3.95;;;26.10;55.70;;;;;;4937894;28;20118;-77
2023/07/09 06:32:04;;;;;;;5.70;4.20;;;26.10;55.70;;;;;;4938154;29;20054;-76
2023/07/09 06:34:30;;;;;;;7.28;4.20;;;26.20;55.80;;;;;;4938140;29;20126;-77
2023/07/09 06:36:57;;;;;;;6.00;4.30;;;26.20;55.80;;;;;;4954268;29;20126;-75
2023/07/09 06:39:23;;;;;;;5.70;4.13;;;26.20;55.80;;;;;;4955298;28;20035;-76
2023/07/09 06:41:49;;;;;;;6.05;4.30;;;26.20;55.90;;;;;;4958832;28;20031;-77
2023/07/09 06:44:44;;;;;;;5.80;4.18;;;26.30;56.00;;;;;;4954414;28;20070;-76
2023/07/09 06:47:10;;;;;;;5.05;4.03;;;26.30;55.90;;;;;;4941564;29;20070;-76
2023/07/09 06:49:36;;;;;;;6.40;4.57;;;26.30;56.00;;;;;;4959003;28;20055;-76
2023/07/09 06:52:03;;;;;;;6.07;4.60;;;26.30;56.00;;;;;;4958250;29;20552;-76
2023/07/09 06:54:29;;;;;;;5.15;3.97;;;26.30;56.10;;;;;;4957288;29;20116;-75
2023/07/09 06:56:55;;;;;;;6.70;4.60;;;26.40;56.10;;;;;;4958131;29;20039;-76
2023/07/09 06:59:21;;;;;;;5.57;4.30;;;26.40;56.10;;;;;;4958732;28;20039;-75
2023/07/09 07:01:46;;;;;;;5.53;4.50;;;26.40;56.20;;;;;;4957133;29;20054;-76
2023/07/09 07:04:12;;;;;;;6.13;4.35;;;26.40;56.10;;;;;;4957926;29;20031;-76
2023/07/09 07:06:38;;;;;;;5.90;4.43;;;26.50;56.20;;;;;;4957011;29;20063;-75
2023/07/09 07:09:04;;;;;;;5.88;4.50;;;26.50;56.20;;;;;;4958552;28;20023;-77
2023/07/09 07:11:30;;;;;;;6.13;4.47;;;26.50;56.20;;;;;;4957580;29;20129;-75
2023/07/09 07:13:57;;;;;;;5.93;4.60;;;26.50;56.20;;;;;;4941418;29;20043;-75
2023/07/09 07:16:23;;;;;;;6.35;4.40;;;26.60;56.30;;;;;;4958180;28;20131;-75
2023/07/09 07:18:50;;;;;;;6.20;4.30;;;26.60;56.40;;;;;;4958035;28;20031;-75
2023/07/09 07:21:15;;;;;;;5.25;4.22;;;26.60;56.40;;;;;;4957102;29;20047;-76
2023/07/09 07:23:41;;;;;;;5.55;4.38;;;26.60;56.40;;;;;;4941066;28;20038;-75
2023/07/09 07:26:07;;;;;;;6.00;4.45;;;26.70;56.50;;;;;;4958554;29;20504;-75
2023/07/09 07:28:35;;;;;;;6.32;4.57;;;26.70;56.50;;;;;;4956721;29;20054;-75
2023/07/09 07:31:02;;;;;;;5.22;4.22;;;26.80;56.50;;;;;;4956749;29;20474;-73
2023/07/09 07:33:29;;;;;;;5.72;4.38;;;26.80;56.50;;;;;;4956796;29;20037;-74
2023/07/09 07:35:54;;;;;;;6.47;4.53;;;26.80;56.50;;;;;;4940729;29;20436;-75
2023/07/09 07:38:20;;;;;;;5.35;4.07;;;26.80;56.50;;;;;;4956446;29;20118;-75
2023/07/09 07:40:46;;;;;;;7.38;5.07;;;26.90;56.50;;;;;;4956385;29;20046;-75
2023/07/09 07:43:12;;;;;;;5.68;4.13;;;27.00;56.50;;;;;;4957671;28;20078;-74
2023/07/09 07:45:42;;;;;;;6.25;4.32;;;27.10;56.50;;;;;;4941238;29;20494;-73
2023/07/09 07:48:08;;;;;;;5.95;4.20;;;27.10;56.40;;;;;;4957895;28;20032;-74
2023/07/09 07:50:33;;;;;;;6.10;4.32;;;27.20;56.40;;;;;;4955145;28;20415;-74
2023/07/09 07:52:59;;;;;;;5.72;4.22;;;27.20;56.30;;;;;;4940267;28;20039;-76
2023/07/09 07:55:25;;;;;;;6.55;4.10;;;27.30;56.30;;;;;;4940658;29;20039;-73
2023/07/09 07:57:51;;;;;;;6.03;4.47;;;27.30;56.10;;;;;;4940424;29;20432;-73
2023/07/09 08:00:17;;;;;;;5.82;4.30;;;27.40;56.10;;;;;;4956320;29;20121;-73
2023/07/09 08:02:42;;;;;;;5.57;4.53;;;27.50;56.10;;;;;;4957478;28;20046;-73
2023/07/09 08:05:08;;;;;;;5.32;4.22;;;27.60;56.10;;;;;;4940229;29;20031;-74
2023/07/09 08:07:34;;;;;;;4.97;3.88;;;27.60;56.10;;;;;;4940379;29;20516;-73
2023/07/09 08:10:00;;;;;;;5.72;4.00;;;27.70;56.00;;;;;;4956366;29;20365;-73
2023/07/09 08:12:26;;;;;;;6.45;4.05;;;27.80;55.90;;;;;;4939827;29;20118;-73
2023/07/09 08:14:51;;;;;;;5.95;4.28;;;27.80;55.80;;;;;;4940230;29;20071;-73
2023/07/09 08:17:17;;;;;;;5.45;4.00;;;27.90;55.80;;;;;;4957555;28;20031;-73
2023/07/09 08:19:47;;;;;;;6.03;4.65;;;28.00;55.70;;;;;;4940167;29;20034;-75
2023/07/09 08:22:14;;;;;;;5.78;3.90;;;28.10;55.70;;;;;;4940086;29;20436;-73
2023/07/09 08:24:39;;;;;;;5.35;4.22;;;28.20;55.70;;;;;;4955697;28;20078;-73
2023/07/09 08:27:07;;;;;;;5.45;4.00;;;28.30;55.70;;;;;;4957256;28;20035;-74
2023/07/09 08:29:33;;;;;;;5.53;4.03;;;28.30;55.60;;;;;;4955321;29;20031;-74
2023/07/09 08:31:59;;;;;;;5.53;3.90;;;28.40;55.60;;;;;;4955488;29;20441;-75
2023/07/09 08:34:24;;;;;;;5.30;4.25;;;28.50;55.60;;;;;;4940358;28;20126;-74
2023/07/09 08:36:50;;;;;;;6.15;4.72;;;28.60;55.60;;;;;;4955717;29;20043;-74
2023/07/09 08:39:16;;;;;;;5.85;3.90;;;28.60;55.50;;;;;;4956852;28;20074;-80
2023/07/09 08:41:57;;;;;;;4.55;3.15;;;28.70;55.50;;;;;;4939717;28;20031;-76
2023/07/09 08:44:57;;;;;;;4.72;3.65;;;28.80;55.60;;;;;;4956539;29;20023;-77
2023/07/09 08:47:37;;;;;;;5.78;3.72;;;28.90;55.60;;;;;;4955255;29;20097;-76
2023/07/09 08:50:10;;;;;;;5.30;3.90;;;29.10;55.60;;;;;;4956301;28;20047;-75
2023/07/09 08:52:42;;;;;;;4.50;3.35;;;29.10;55.50;;;;;;4956913;28;20039;-76
2023/07/09 08:55:12;;;;;;;5.05;3.70;;;29.20;55.40;;;;;;4956380;28;20531;-76
2023/07/09 08:57:42;;;;;;;6.35;3.60;;;29.30;55.50;;;;;;4956417;28;20480;-75
2023/07/09 09:00:19;;;;;;;5.20;3.67;;;29.40;55.50;;;;;;4956591;29;20027;-78
2023/07/09 09:03:03;;;;;;;5.65;4.00;;;29.50;55.60;;;;;;4954713;28;20126;-75
2023/07/09 09:05:33;;;;;;;4.80;3.63;;;29.60;55.50;;;;;;4956413;28;20032;-80
2023/07/09 09:08:08;;;;;;;5.50;3.88;;;29.70;55.40;;;;;;4956127;28;20054;-76
2023/07/09 09:10:46;;;;;;;5.72;3.60;;;29.80;55.30;;;;;;4956505;29;20528;-74
2023/07/09 09:13:15;;;;;;;5.10;3.63;;;29.80;55.30;;;;;;4956577;28;20035;-74
2023/07/09 09:15:45;;;;;;;4.93;3.55;;;30.00;55.20;;;;;;4956201;28;20031;-75
2023/07/09 09:18:26;;;;;;;5.25;3.58;;;30.10;55.20;;;;;;4954806;29;20548;-75
2023/07/09 09:21:06;;;;;;;4.95;3.72;;;30.10;55.10;;;;;;4955846;28;20046;-74
2023/07/09 09:23:54;;;;;;;4.97;3.50;;;30.20;55.10;;;;;;4955870;28;20031;-74
2023/07/09 09:26:32;;;;;;;6.00;3.42;;;30.30;55.00;;;;;;4955740;29;20031;-74
2023/07/09 09:28:58;;;;;;;4.70;3.33;;;30.40;55.10;;;;;;4954390;28;20118;-75
2023/07/09 09:31:27;;;;;;;4.93;3.50;;;30.50;55.00;;;;;;4955620;28;20118;-75
2023/07/09 09:33:53;;;;;;;4.25;3.45;;;30.60;55.00;;;;;;4939250;28;20035;-74
2023/07/09 09:36:22;;;;;;;4.60;3.35;;;30.70;54.80;;;;;;4939035;29;20463;-75
2023/07/09 09:38:50;;;;;;;4.60;3.25;;;30.80;54.80;;;;;;4955475;29;20031;-75
2023/07/09 09:41:19;;;;;;;5.35;3.78;;;30.90;54.80;;;;;;4954363;29;20361;-76
2023/07/09 09:43:46;;;;;;;5.70;4.10;;;31.00;54.70;;;;;;4954461;29;20019;-77
2023/07/09 09:46:24;;;;;;;4.47;3.65;;;31.10;54.70;;;;;;4954815;29;20027;-76
2023/07/09 09:48:54;;;;;;;5.43;3.30;;;31.20;54.70;;;;;;4938428;29;20047;-78
2023/07/09 09:51:23;;;;;;;4.63;3.20;;;31.30;54.60;;;;;;4939344;29;20043;-77
2023/07/09 09:53:51;;;;;;;5.95;3.97;;;31.30;54.40;;;;;;4954611;28;20027;-76
2023/07/09 09:56:28;;;;;;;4.18;3.00;;;31.50;54.40;;;;;;4954421;29;20073;-77
2023/07/09 09:58:55;;;;;;;5.25;3.42;;;31.60;54.50;;;;;;4954606;28;20042;-76
2023/07/09 10:01:32;;;;;;;4.68;3.47;;;31.70;54.40;;;;;;4938463;29;20399;-77
2023/07/09 10:03:59;;;;;;;4.78;3.33;;;31.70;54.40;;;;;;4955597;29;20066;-77
2023/07/09 10:06:39;;;;;;;4.75;3.55;;;31.80;54.20;;;;;;4954913;29;20457;-76
2023/07/09 10:09:10;;;;;;;4.68;3.05;;;31.90;54.30;;;;;;4938528;29;20127;-77
2023/07/09 10:11:48;;;;;;;4.55;3.47;;;32.00;54.10;;;;;;4955751;28;20117;-76
2023/07/09 10:14:54;;;;;;;4.45;2.90;;;32.10;54.10;;;;;;4937798;29;20094;-76
2023/07/09 10:17:23;;;;;;;3.92;2.85;;;32.20;54.10;;;;;;4941983;28;20043;-76
2023/07/09 10:19:53;;;;;;;4.05;3.15;;;32.30;53.90;;;;;;4938405;29;20034;-76
2023/07/09 10:22:37;;;;;;;4.13;3.00;;;32.40;53.80;;;;;;4955450;28;20055;-77
2023/07/09 10:25:19;;;;;;;4.70;3.17;;;32.50;53.80;;;;;;4955052;29;20039;-76
2023/07/09 10:28:10;;;;;;;4.60;2.85;;;32.60;53.70;;;;;;4954447;29;20082;-76
2023/07/09 10:30:47;;;;;;;3.40;2.72;;;32.70;53.60;;;;;;4959162;29;20043;-77
2023/07/09 10:33:22;;;;;;;3.78;2.90;;;32.80;53.60;;;;;;4955933;28;20098;-77
2023/07/09 10:36:02;;;;;;;5.22;3.40;;;32.90;53.60;;;;;;4953843;29;20050;-76
2023/07/09 10:38:37;;;;;;;3.70;2.80;;;33.00;53.50;;;;;;4954319;29;20023;-76
2023/07/09 10:41:09;;;;;;;3.92;2.97;;;33.10;53.40;;;;;;4955310;28;20119;-76
2023/07/09 10:43:47;;;;;;;4.35;3.13;;;33.20;53.40;;;;;;4954370;29;20449;-77
2023/07/09 10:46:16;;;;;;;4.00;3.03;;;33.20;53.30;;;;;;4953848;29;20461;-77
2023/07/09 10:48:48;;;;;;;3.70;2.80;;;33.30;53.20;;;;;;4955235;28;20046;-77
2023/07/09 10:51:22;;;;;;;4.60;3.30;;;33.40;53.20;;;;;;4954132;29;20035;-76
2023/07/09 10:53:56;;;;;;;4.22;3.00;;;33.50;53.20;;;;;;4953587;28;20043;-77
2023/07/09 10:56:27;;;;;;;4.20;3.20;;;33.60;53.10;;;;;;4954857;28;20060;-76
2023/07/09 10:59:16;;;;;;;3.58;2.80;;;33.70;53.10;;;;;;4955921;28;20043;-76
2023/07/09 11:01:45;;;;;;;4.60;3.10;;;33.70;53.20;;;;;;4955295;29;20035;-77
2023/07/09 11:04:36;;;;;;;5.00;3.20;;;33.80;53.00;;;;;;4938583;29;20035;-76
2023/07/09 11:07:07;;;;;;;4.32;2.97;;;33.90;53.00;;;;;;4954729;29;20066;-77
2023/07/09 11:09:42;;;;;;;3.90;2.70;;;34.00;53.20;;;;;;4953874;29;20027;-77
2023/07/09 11:12:33;;;;;;;3.92;3.15;;;34.00;53.10;;;;;;4954733;28;20054;-77
2023/07/09 11:15:00;;;;;;;3.53;2.75;;;34.00;53.10;;;;;;4953514;29;20023;-77
2023/07/09 11:17:28;;;;;;;4.80;3.13;;;34.10;53.10;;;;;;4953731;28;20036;-77
2023/07/09 11:19:57;;;;;;;3.95;2.83;;;34.20;53.20;;;;;;4953862;29;20032;-77
2023/07/09 11:22:37;;;;;;;4.28;3.08;;;34.20;53.20;;;;;;4954864;28;20036;-77
2023/07/09 11:25:10;;;;;;;4.63;3.13;;;34.30;53.40;;;;;;4955698;28;20536;-77
2023/07/09 11:27:50;;;;;;;3.25;2.55;;;34.30;53.40;;;;;;4956913;29;20028;-76
2023/07/09 11:30:18;;;;;;;4.82;2.88;;;34.30;53.40;;;;;;4957819;28;20046;-77
2023/07/09 11:32:53;;;;;;;3.75;2.75;;;34.30;53.30;;;;;;4957012;29;20032;-77
2023/07/09 11:35:48;;;;;;;4.25;3.28;;;34.40;53.40;;;;;;4941776;29;20033;-77
2023/07/09 11:38:24;;;;;;;4.18;2.78;;;34.40;53.50;;;;;;4958731;28;20031;-77
2023/07/09 11:40:54;;;;;;;3.80;2.70;;;34.50;53.60;;;;;;4958102;28;20035;-77
2023/07/09 11:43:34;;;;;;;3.85;2.65;;;34.40;53.60;;;;;;4940835;29;20067;-76
2023/07/09 11:46:26;;;;;;;3.88;2.70;;;34.50;53.70;;;;;;4956855;29;20033;-76
2023/07/09 11:48:57;;;;;;;3.83;2.83;;;34.50;53.70;;;;;;4953847;28;20050;-76
2023/07/09 11:51:37;;;;;;;3.92;2.80;;;34.60;53.80;;;;;;4957604;28;20047;-76
2023/07/09 11:54:03;;;;;;;3.40;2.65;;;34.60;53.90;;;;;;4956378;29;20096;-75
2023/07/09 11:56:29;;;;;;;3.75;3.05;;;34.60;53.80;;;;;;4957464;28;20078;-76
2023/07/09 11:58:56;;;;;;;3.30;2.85;;;34.60;53.80;;;;;;4940573;29;20033;-75
2023/07/09 12:01:27;;;;;;;3.67;2.80;;;34.60;53.80;;;;;;4957622;28;20041;-76
2023/07/09 12:03:56;;;;;;;3.88;2.80;;;34.70;53.90;;;;;;4958374;28;20039;-75
2023/07/09 12:06:33;;;;;;;3.72;2.60;;;34.70;53.90;;;;;;4956133;29;20031;-75
2023/07/09 12:08:59;;;;;;;3.72;2.75;;;34.70;53.90;;;;;;4939977;29;20114;-75
2023/07/09 12:11:32;;;;;;;3.80;2.80;;;34.80;53.90;;;;;;4956165;29;20071;-76
2023/07/09 12:14:03;;;;;;;3.88;2.88;;;34.80;53.80;;;;;;4940039;29;20444;-75
2023/07/09 12:16:32;;;;;;;3.70;2.80;;;34.80;53.80;;;;;;4958142;28;20471;-75
2023/07/09 12:18:58;;;;;;;4.10;2.70;;;34.80;53.80;;;;;;4956101;28;20028;-74
2023/07/09 12:21:25;;;;;;;4.13;2.72;;;34.80;53.70;;;;;;4940149;29;20035;-75
2023/07/09 12:23:53;;;;;;;3.35;2.60;;;34.90;53.80;;;;;;4957308;28;20070;-75
2023/07/09 12:26:20;;;;;;;3.35;2.45;;;34.90;53.70;;;;;;4955735;29;20046;-75
2023/07/09 12:28:54;;;;;;;3.55;2.75;;;34.90;53.60;;;;;;4955987;29;20499;-75
2023/07/09 12:31:26;;;;;;;3.70;2.72;;;34.90;53.60;;;;;;4939757;29;20466;-75
2023/07/09 12:33:57;;;;;;;3.47;2.63;;;34.90;53.50;;;;;;4955852;29;20106;-75
2023/07/09 12:36:24;;;;;;;3.78;2.70;;;35.00;53.60;;;;;;4955452;28;20086;-74
2023/07/09 12:38:53;;;;;;;2.85;2.35;;;35.00;53.50;;;;;;4957480;28;20030;-74
2023/07/09 12:41:23;;;;;;;3.90;2.75;;;35.00;53.50;;;;;;4939746;29;20027;-76
2023/07/09 12:43:52;;;;;;;3.38;2.58;;;35.00;53.40;;;;;;4957202;29;20039;-78
2023/07/09 12:46:18;;;;;;;4.22;2.67;;;35.00;53.40;;;;;;4957044;29;20035;-76
2023/07/09 12:48:46;;;;;;;5.28;2.70;;;35.00;53.10;;;;;;4956262;28;20110;-75
2023/07/09 12:51:28;;;;;;;4.20;2.85;;;35.00;53.10;;;;;;4955505;29;20038;-76
2023/07/09 12:54:12;;;;;;;4.32;2.97;;;35.00;53.10;;;;;;4957078;28;20538;-76
2023/07/09 12:56:38;;;;;;;4.20;3.10;;;35.00;53.10;;;;;;4955789;29;20158;-78
2023/07/09 12:59:22;;;;;;;4.20;3.03;;;35.00;53.10;;;;;;4939489;29;20113;-77